createdAt,value
2023-03-29T00:01:57.110Z,101817.47
2023-03-29T00:04:07.656Z,101818.31
2023-03-29T00:06:15.445Z,101812.25
2023-03-29T00:08:26.837Z,101803.53
2023-03-29T00:10:37.360Z,101807.03
2023-03-29T00:12:47.553Z,101805.28
2023-03-29T00:15:01.168Z,101803.53
2023-03-29T00:17:09.054Z,101797.41
2023-03-29T00:19:19.823Z,101803.44
2023-03-29T00:21:27.396Z,101786.97
2023-03-29T00:23:37.168Z,101792.22
2023-03-29T00:25:55.193Z,101785.22
2023-03-29T00:28:01.463Z,101779.19
2023-03-29T00:30:12.015Z,101788.69
2023-03-29T00:32:17.153Z,101789.53
2023-03-29T00:34:32.056Z,101783.44
2023-03-29T00:36:40.649Z,101766.91
2023-03-29T00:38:46.560Z,101766.06
2023-03-29T00:40:52.881Z,101777.31
2023-03-29T00:43:03.850Z,101770.38
2023-03-29T00:45:20.655Z,101777.31
2023-03-29T00:47:33.138Z,101768.59
2023-03-29T00:49:41.959Z,101768.63
2023-03-29T00:51:48.445Z,101767.72
2023-03-29T00:53:57.830Z,101761.66
2023-03-29T00:56:12.055Z,101759.03
2023-03-29T00:58:22.393Z,101756.41
2023-03-29T01:00:37.757Z,101764.25
2023-03-29T01:02:45.701Z,101760.78
2023-03-29T01:05:00.614Z,101745.94
2023-03-29T01:07:13.227Z,101748.53
2023-03-29T01:09:21.950Z,101745.91
2023-03-29T01:11:37.143Z,101741.53
2023-03-29T01:13:50.033Z,101745.91
2023-03-29T01:15:58.855Z,101752.00
2023-03-29T01:18:05.178Z,101738.09
2023-03-29T01:20:20.608Z,101742.44
2023-03-29T01:22:38.883Z,101732.88
2023-03-29T01:25:03.089Z,101735.41
2023-03-29T01:27:15.829Z,101725.84
2023-03-29T01:29:43.191Z,101722.31
2023-03-29T01:31:53.720Z,101719.75
2023-03-29T01:34:07.415Z,101713.63
2023-03-29T01:36:19.723Z,101711.03
2023-03-29T01:38:32.586Z,101717.13
2023-03-29T01:40:37.832Z,101719.75
2023-03-29T01:42:50.052Z,101714.53
2023-03-29T01:45:06.768Z,101715.38
2023-03-29T01:47:18.311Z,101715.34
2023-03-29T01:49:30.882Z,101703.16
2023-03-29T01:51:46.323Z,101704.00
2023-03-29T01:53:57.888Z,101705.69
2023-03-29T01:56:09.297Z,101709.19
2023-03-29T01:58:20.251Z,101709.22
2023-03-29T02:00:32.149Z,101706.59
2023-03-29T02:02:44.905Z,101706.59
2023-03-29T02:04:56.542Z,101707.41
2023-03-29T02:07:07.540Z,101702.22
2023-03-29T02:09:12.846Z,101706.56
2023-03-29T02:11:27.229Z,101703.03
2023-03-29T02:13:35.583Z,101699.56
2023-03-29T02:15:44.870Z,101696.97
2023-03-29T02:17:53.135Z,101701.25
2023-03-29T02:20:02.382Z,101690.84
2023-03-29T02:22:13.314Z,101685.63
2023-03-29T02:24:20.950Z,101684.75
2023-03-29T02:26:29.683Z,101681.25
2023-03-29T02:28:34.893Z,101680.38
2023-03-29T02:30:50.251Z,101672.53
2023-03-29T02:33:00.580Z,101678.66
2023-03-29T02:35:13.097Z,101678.59
2023-03-29T02:37:21.981Z,101671.66
2023-03-29T02:39:29.398Z,101672.56
2023-03-29T02:41:40.570Z,101674.28
2023-03-29T02:43:47.870Z,101660.31
2023-03-29T02:45:58.795Z,101663.72
2023-03-29T02:48:07.853Z,101665.50
2023-03-29T02:50:16.110Z,101659.44
2023-03-29T02:52:27.032Z,101649.88
2023-03-29T02:54:33.044Z,101656.00
2023-03-29T02:56:46.208Z,101655.97
2023-03-29T02:58:51.250Z,101651.59
2023-03-29T03:01:05.372Z,101651.59
2023-03-29T03:03:14.636Z,101648.16
2023-03-29T03:05:20.423Z,101648.97
2023-03-29T03:07:25.253Z,101644.66
2023-03-29T03:09:30.394Z,101645.50
2023-03-29T03:11:35.626Z,101643.75
2023-03-29T03:13:42.469Z,101638.53
2023-03-29T03:15:49.691Z,101642.00
2023-03-29T03:18:01.027Z,101643.72
2023-03-29T03:20:09.629Z,101643.72
2023-03-29T03:22:15.192Z,101639.38
2023-03-29T03:24:20.721Z,101633.28
2023-03-29T03:26:30.354Z,101634.16
2023-03-29T03:28:35.539Z,101635.88
2023-03-29T03:30:42.627Z,101630.66
2023-03-29T03:32:48.207Z,101628.03
2023-03-29T03:34:59.859Z,101628.91
2023-03-29T03:37:05.838Z,101623.63
2023-03-29T03:39:12.071Z,101623.63
2023-03-29T03:41:17.025Z,101623.63
2023-03-29T03:43:23.406Z,101628.84
2023-03-29T03:45:32.248Z,101627.16
2023-03-29T03:47:37.811Z,101622.81
2023-03-29T03:49:44.018Z,101622.78
2023-03-29T03:51:53.335Z,101626.25
2023-03-29T03:53:58.064Z,101624.53
2023-03-29T03:56:11.263Z,101626.25
2023-03-29T03:58:16.290Z,101631.47
2023-03-29T04:00:24.217Z,101628.84
2023-03-29T04:02:31.105Z,101618.34
2023-03-29T04:04:37.327Z,101625.34
2023-03-29T04:06:53.021Z,101612.25
2023-03-29T04:08:58.263Z,101611.38
2023-03-29T04:11:05.661Z,101614.00
2023-03-29T04:13:12.927Z,101606.16
2023-03-29T04:15:20.834Z,101607.88
2023-03-29T04:17:26.001Z,101614.84
2023-03-29T04:19:38.180Z,101609.66
2023-03-29T04:21:45.590Z,101596.56
2023-03-29T04:23:53.259Z,101599.16
2023-03-29T04:25:59.501Z,101593.91
2023-03-29T04:28:04.777Z,101595.66
2023-03-29T04:30:14.375Z,101592.16
2023-03-29T04:32:19.146Z,101594.75
2023-03-29T04:34:24.019Z,101592.09
2023-03-29T04:36:29.186Z,101590.34
2023-03-29T04:38:36.296Z,101588.56
2023-03-29T04:40:46.152Z,101584.19
2023-03-29T04:42:52.880Z,101579.84
2023-03-29T04:45:02.783Z,101579.03
2023-03-29T04:47:07.762Z,101579.03
2023-03-29T04:49:12.888Z,101578.13
2023-03-29T04:51:22.480Z,101586.78
2023-03-29T04:53:27.936Z,101586.81
2023-03-29T04:55:34.694Z,101586.81
2023-03-29T04:57:44.767Z,101577.19
2023-03-29T04:59:52.202Z,101582.41
2023-03-29T05:01:58.426Z,101585.00
2023-03-29T05:04:03.604Z,101592.00
2023-03-29T05:06:10.396Z,101585.00
2023-03-29T05:08:25.304Z,101582.41
2023-03-29T05:10:31.367Z,101592.00
2023-03-29T05:12:42.868Z,101591.09
2023-03-29T05:14:47.718Z,101591.06
2023-03-29T05:16:52.756Z,101594.47
2023-03-29T05:19:00.557Z,101604.06
2023-03-29T05:21:05.507Z,101596.22
2023-03-29T05:23:13.641Z,101605.78
2023-03-29T05:25:19.789Z,101601.44
2023-03-29T05:27:25.361Z,101604.91
2023-03-29T05:32:19.439Z,101597.81
2023-03-29T05:34:35.401Z,101599.53
2023-03-29T05:36:50.709Z,101597.75
2023-03-29T05:39:24.391Z,101590.78
2023-03-29T05:41:49.581Z,101589.06
2023-03-29T05:46:44.710Z,101604.75
2023-03-29T05:48:50.137Z,101604.75
2023-03-29T05:51:09.813Z,101608.22
2023-03-29T05:53:24.207Z,101602.09
2023-03-29T05:55:47.001Z,101611.63
2023-03-29T05:58:23.479Z,101602.84
2023-03-29T06:00:52.807Z,101602.00
2023-03-29T06:03:43.238Z,101598.50
2023-03-29T06:12:39.446Z,101593.13
2023-03-29T06:15:41.620Z,101597.50
2023-03-29T06:24:15.287Z,101597.28
2023-03-29T06:31:54.376Z,101594.47
2023-03-29T06:37:43.703Z,101603.06
2023-03-29T06:43:35.081Z,101605.53
2023-03-29T06:46:22.353Z,101608.03
2023-03-29T06:48:55.648Z,101605.31
2023-03-29T06:53:43.424Z,101617.53
2023-03-29T06:59:16.115Z,101621.81
2023-03-29T07:01:47.696Z,101624.47
2023-03-29T07:04:14.458Z,101629.56
2023-03-29T07:07:10.315Z,101638.25
2023-03-29T07:10:21.897Z,101634.75
2023-03-29T07:12:51.274Z,101638.94
2023-03-29T07:15:42.534Z,101636.25
2023-03-29T07:18:24.417Z,101632.69
2023-03-29T07:24:41.169Z,101635.94
2023-03-29T07:27:04.189Z,101643.72
2023-03-29T07:32:23.848Z,101627.69
2023-03-29T07:34:57.270Z,101631.91
2023-03-29T07:37:46.329Z,101631.84
2023-03-29T07:40:16.089Z,101632.63
2023-03-29T07:43:17.135Z,101622.91
2023-03-29T07:45:51.893Z,101625.38
2023-03-29T07:50:45.676Z,101631.09
2023-03-29T07:53:09.759Z,101624.84
2023-03-29T07:58:31.368Z,101634.91
2023-03-29T08:00:54.018Z,101629.66
2023-03-29T08:03:51.614Z,101633.91
2023-03-29T10:48:45.390Z,101563.50
2023-03-29T10:51:20.057Z,101556.91
2023-03-29T10:56:36.703Z,101546.81
2023-03-29T10:59:06.128Z,101559.44
2023-03-29T11:01:26.367Z,101561.47
2023-03-29T11:04:03.696Z,101562.47
2023-03-29T11:06:37.829Z,101557.84
2023-03-29T11:09:37.501Z,101564.56
2023-03-29T11:12:04.466Z,101569.69
2023-03-29T11:17:44.958Z,101587.44
2023-03-29T11:20:18.624Z,101577.22
2023-03-29T11:30:13.484Z,101597.84
2023-03-29T11:42:34.046Z,101581.06
2023-03-29T11:50:38.572Z,101578.72
2023-03-29T11:52:52.674Z,101573.63
2023-03-29T11:55:17.263Z,101562.41
2023-03-29T12:01:26.284Z,101554.13
2023-03-29T12:07:01.895Z,101540.00
2023-03-29T12:10:12.746Z,101542.88
2023-03-29T12:12:33.634Z,101545.22
2023-03-29T12:15:08.821Z,101554.66
2023-03-29T12:17:31.602Z,101540.53
2023-03-29T12:19:59.719Z,101542.91
2023-03-29T12:25:18.477Z,101537.88
2023-03-29T12:27:56.931Z,101528.09
2023-03-29T12:31:01.938Z,101518.34
2023-03-29T12:48:23.391Z,101482.69
2023-03-29T12:53:58.228Z,101490.78
2023-03-29T12:56:16.013Z,101482.69
2023-03-29T12:58:44.209Z,101483.38
2023-03-29T13:01:01.773Z,101481.13
2023-03-29T13:03:22.943Z,101472.03
2023-03-29T13:05:34.128Z,101464.66
2023-03-29T13:07:50.188Z,101460.81
2023-03-29T13:09:56.936Z,101467.72
2023-03-29T13:12:09.225Z,101463.63
2023-03-29T13:14:19.653Z,101458.69
2023-03-29T13:16:33.994Z,101456.69
2023-03-29T13:18:52.104Z,101453.09
2023-03-29T13:21:04.354Z,101447.34
2023-03-29T13:23:26.586Z,101434.88
2023-03-29T13:26:00.020Z,101427.09
2023-03-29T13:28:13.308Z,101419.28
2023-03-29T13:30:31.005Z,101423.50
2023-03-29T13:32:52.905Z,101433.19
2023-03-29T13:35:03.993Z,101431.56
2023-03-29T13:37:21.294Z,101428.09
2023-03-29T13:39:32.043Z,101432.44
2023-03-29T13:41:50.530Z,101418.16
2023-03-29T13:43:57.763Z,101422.22
2023-03-29T13:46:25.289Z,101406.81
2023-03-29T13:48:35.129Z,101411.94
2023-03-29T13:50:42.858Z,101415.22
2023-03-29T13:53:00.642Z,101413.22
2023-03-29T13:55:10.849Z,101404.25
2023-03-29T13:57:20.286Z,101397.22
2023-03-29T13:59:34.732Z,101398.13
2023-03-29T14:01:46.032Z,101384.69
2023-03-29T14:03:55.142Z,101390.94
2023-03-29T14:06:03.418Z,101388.50
2023-03-29T14:08:13.204Z,101395.50
2023-03-29T14:10:21.460Z,101386.63
2023-03-29T14:12:27.498Z,101381.78
2023-03-29T14:14:37.164Z,101375.31
2023-03-29T14:16:44.645Z,101368.88
2023-03-29T14:18:51.657Z,101361.41
2023-03-29T14:20:59.082Z,101355.81
2023-03-29T14:23:04.007Z,101360.72
2023-03-29T14:25:15.776Z,101351.94
2023-03-29T14:27:22.431Z,101342.28
2023-03-29T14:29:33.794Z,101352.47
2023-03-29T14:31:42.750Z,101337.31
2023-03-29T14:33:47.795Z,101325.94
2023-03-29T14:35:53.729Z,101328.56
2023-03-29T14:38:01.920Z,101326.09
2023-03-29T14:40:12.196Z,101324.59
2023-03-29T14:42:21.555Z,101317.66
2023-03-29T14:44:31.164Z,101316.91
2023-03-29T14:46:37.166Z,101314.41
2023-03-29T14:48:42.454Z,101311.31
2023-03-29T14:50:49.885Z,101308.03
2023-03-29T14:52:57.758Z,101309.09
2023-03-29T14:55:05.820Z,101316.75
2023-03-29T14:57:16.810Z,101321.88
2023-03-29T14:59:30.044Z,101319.69
2023-03-29T15:01:34.915Z,101334.03
2023-03-29T15:03:54.535Z,101324.38
2023-03-29T15:06:03.680Z,101319.72
2023-03-29T15:08:12.255Z,101313.31
2023-03-29T15:10:22.443Z,101311.75
2023-03-29T15:12:27.642Z,101302.50
2023-03-29T15:14:37.185Z,101296.69
2023-03-29T15:16:47.056Z,101283.63
2023-03-29T15:18:55.188Z,101284.63
2023-03-29T15:21:00.200Z,101285.53
2023-03-29T15:23:08.609Z,101289.28
2023-03-29T15:25:22.460Z,101286.63
2023-03-29T15:27:27.897Z,101284.16
2023-03-29T15:29:42.123Z,101273.69
2023-03-29T15:31:59.154Z,101273.69
2023-03-29T15:34:09.788Z,101276.50
2023-03-29T15:36:16.862Z,101264.22
2023-03-29T15:38:27.700Z,101261.59
2023-03-29T15:40:38.200Z,101255.66
2023-03-29T15:42:44.961Z,101246.09
2023-03-29T15:44:49.781Z,101227.97
2023-03-29T15:46:55.417Z,101221.63
2023-03-29T15:49:01.699Z,101214.97
2023-03-29T15:51:07.064Z,101221.84
2023-03-29T15:53:15.628Z,101224.53
2023-03-29T15:55:20.889Z,101215.69
2023-03-29T15:57:28.638Z,101208.63
2023-03-29T15:59:34.182Z,101201.53
2023-03-29T16:01:41.990Z,101202.50
2023-03-29T16:03:48.262Z,101204.03
2023-03-29T16:05:54.454Z,101195.94
2023-03-29T16:07:59.443Z,101190.97
2023-03-29T16:10:04.295Z,101193.63
2023-03-29T16:12:09.159Z,101189.19
2023-03-29T16:14:27.469Z,101180.63
2023-03-29T16:16:32.435Z,101191.91
2023-03-29T16:18:38.342Z,101185.84
2023-03-29T16:20:45.464Z,101189.28
2023-03-29T16:22:51.648Z,101178.56
2023-03-29T16:24:56.690Z,101182.25
2023-03-29T16:27:02.779Z,101176.19
2023-03-29T16:29:07.684Z,101174.34
2023-03-29T16:31:16.642Z,101171.84
2023-03-29T16:33:21.526Z,101173.50
2023-03-29T16:35:30.355Z,101174.66
2023-03-29T16:37:35.387Z,101171.84
2023-03-29T16:39:40.989Z,101173.00
2023-03-29T16:41:49.099Z,101173.06
2023-03-29T16:43:54.341Z,101168.56
2023-03-29T16:46:00.009Z,101168.56
2023-03-29T16:48:07.710Z,101163.38
2023-03-29T16:50:14.931Z,101153.88
2023-03-29T16:52:20.441Z,101166.03
2023-03-29T16:54:29.837Z,101162.59
2023-03-29T16:56:39.217Z,101143.88
2023-03-29T16:58:44.894Z,101130.91
2023-03-29T17:00:53.416Z,101121.19
2023-03-29T17:03:04.238Z,101125.84
2023-03-29T17:05:13.376Z,101118.84
2023-03-29T17:07:18.456Z,101115.44
2023-03-29T17:09:29.649Z,101111.00
2023-03-29T17:11:34.952Z,101110.34
2023-03-29T17:13:43.741Z,101119.91
2023-03-29T17:15:48.604Z,101111.16
2023-03-29T17:17:53.641Z,101106.66
2023-03-29T17:19:58.964Z,101105.78
2023-03-29T17:22:06.745Z,101098.09
2023-03-29T17:24:12.626Z,101093.09
2023-03-29T17:26:18.828Z,101088.81
2023-03-29T17:28:23.576Z,101088.06
2023-03-29T17:30:28.496Z,101092.78
2023-03-29T17:32:33.343Z,101097.13
2023-03-29T17:34:41.943Z,101096.38
2023-03-29T17:36:49.052Z,101096.50
2023-03-29T17:38:56.643Z,101094.94
2023-03-29T17:41:01.547Z,101085.16
2023-03-29T17:43:06.798Z,101089.81
2023-03-29T17:45:13.924Z,101084.59
2023-03-29T17:47:21.273Z,101082.03
2023-03-29T17:49:26.085Z,101077.84
2023-03-29T17:51:35.068Z,101076.78
2023-03-29T17:53:40.503Z,101069.44
2023-03-29T17:55:47.978Z,101073.78
2023-03-29T17:57:56.757Z,101068.59
2023-03-29T18:00:01.456Z,101066.97
2023-03-29T18:02:06.541Z,101073.97
2023-03-29T18:04:11.883Z,101076.75
2023-03-29T18:06:19.692Z,101066.34
2023-03-29T18:08:24.578Z,101060.31
2023-03-29T18:10:29.609Z,101063.06
2023-03-29T18:12:37.097Z,101066.78
2023-03-29T18:14:41.935Z,101065.00
2023-03-29T18:16:47.292Z,101059.88
2023-03-29T18:18:52.205Z,101055.25
2023-03-29T18:20:56.958Z,101052.81
2023-03-29T18:23:02.548Z,101060.09
2023-03-29T18:25:09.788Z,101051.53
2023-03-29T18:27:16.112Z,101056.50
2023-03-29T18:29:26.361Z,101048.59
2023-03-29T18:31:31.195Z,101055.81
2023-03-29T18:33:38.039Z,101055.81
2023-03-29T18:35:43.096Z,101045.34
2023-03-29T18:37:48.584Z,101054.91
2023-03-29T18:39:53.432Z,101050.53
2023-03-29T18:41:58.191Z,101048.09
2023-03-29T18:44:03.238Z,101037.53
2023-03-29T18:46:11.390Z,101036.00
2023-03-29T18:48:18.112Z,101032.56
2023-03-29T18:50:23.506Z,101043.34
2023-03-29T18:52:28.534Z,101039.84
2023-03-29T18:54:33.325Z,101033.03
2023-03-29T18:56:38.685Z,101035.66
2023-03-29T18:58:43.917Z,101027.31
2023-03-29T19:00:48.739Z,101030.09
2023-03-29T19:03:22.263Z,101027.16
2023-03-29T19:06:14.835Z,101019.31
2023-03-29T19:09:28.829Z,101006.19
2023-03-29T19:14:36.187Z,101004.63
2023-03-29T19:20:33.277Z,100983.94
2023-03-29T19:22:58.038Z,100981.03
2023-03-29T19:25:21.616Z,100980.34
2023-03-29T19:27:58.109Z,100972.28
2023-03-29T19:30:26.323Z,100958.66
2023-03-29T19:33:20.957Z,100967.53
2023-03-29T19:36:09.962Z,100959.53
2023-03-29T19:38:48.474Z,100956.22
2023-03-29T19:44:16.264Z,100946.84
2023-03-29T19:52:40.479Z,100939.44
2023-03-29T19:55:55.387Z,100939.50
2023-03-29T20:10:00.836Z,100906.75
2023-03-29T20:22:23.445Z,100878.19
2023-03-29T20:25:11.278Z,100871.44
2023-03-29T20:37:49.178Z,100842.16
2023-03-29T20:47:30.301Z,100834.69
2023-03-29T20:50:29.337Z,100843.31
2023-03-29T21:26:52.806Z,100780.09
2023-03-29T21:28:57.588Z,100777.88
2023-03-29T21:31:06.353Z,100780.75
2023-03-29T21:33:11.694Z,100770.81
2023-03-29T21:35:16.682Z,100777.72
2023-03-29T21:37:21.588Z,100775.91
2023-03-29T21:39:28.262Z,100770.47
2023-03-29T21:41:33.190Z,100771.88
2023-03-29T21:43:40.572Z,100775.66
2023-03-29T21:45:45.232Z,100773.06
2023-03-29T21:47:50.120Z,100776.69
2023-03-29T21:49:55.358Z,100782.31
2023-03-29T21:52:00.196Z,100782.63
2023-03-29T21:54:05.004Z,100785.63
2023-03-29T21:56:12.299Z,100780.19
2023-03-29T21:58:17.087Z,100778.28
2023-03-29T22:00:27.060Z,100788.50
2023-03-29T22:02:31.975Z,100783.47
2023-03-29T22:04:37.604Z,100773.06
2023-03-29T22:06:43.120Z,100776.63
2023-03-29T22:08:49.741Z,100773.19
2023-03-29T22:10:57.105Z,100776.50
2023-03-29T22:13:03.439Z,100763.06
2023-03-29T22:32:33.057Z,100743.28
2023-03-29T22:41:58.923Z,100743.50
2023-03-29T22:47:47.232Z,100735.06
2023-03-29T23:01:10.840Z,100733.81
2023-03-29T23:14:15.695Z,100722.19
